Time;durP1;ratioP1;P1;durP2;ratioP2;P2;SDS_P1;SDS_P2;PMS_P1;PMS_P2;Temp;Humidity;BMP_temperature;BMP_pressure;BME280_temperature;BME280_humidity;BME280_pressure;Samples;Min_cycle;Max_cycle;Signal;HPM_P1;HPM_P2
2022/07/31 00:00:18;;;;;;;0.80;0.30;;;22.10;58.10;;;;;;5113391;28;20031;-77
2022/07/31 00:02:44;;;;;;;0.93;0.30;;;22.20;58.20;;;;;;5113922;28;20514;-78
2022/07/31 00:05:10;;;;;;;0.70;0.30;;;22.10;58.10;;;;;;5114256;28;20044;-77
2022/07/31 00:07:36;;;;;;;1.05;0.30;;;22.20;58.20;;;;;;5112943;28;20123;-77
2022/07/31 00:10:02;;;;;;;0.40;0.30;;;22.10;58.10;;;;;;5113242;28;20042;-77
2022/07/31 00:12:28;;;;;;;1.40;0.40;;;22.10;58.10;;;;;;5113233;28;20232;-76
2022/07/31 00:14:54;;;;;;;0.70;0.30;;;22.10;58.10;;;;;;5112839;28;20632;-77
2022/07/31 00:17:19;;;;;;;0.60;0.30;;;22.10;58.10;;;;;;5112831;28;20093;-77
2022/07/31 00:19:45;;;;;;;1.17;0.40;;;22.20;58.20;;;;;;5112554;28;20048;-77
2022/07/31 00:22:12;;;;;;;1.48;0.38;;;22.10;58.10;;;;;;5114240;28;20090;-77
2022/07/31 00:24:38;;;;;;;1.35;0.40;;;22.10;58.10;;;;;;5112071;28;20051;-77
2022/07/31 00:27:04;;;;;;;0.90;0.43;;;22.10;58.10;;;;;;5112534;28;20032;-76
2022/07/31 00:29:30;;;;;;;1.50;0.40;;;22.10;58.20;;;;;;5112804;28;20051;-77
2022/07/31 00:31:55;;;;;;;1.73;0.40;;;22.10;58.20;;;;;;5112504;28;20399;-77
2022/07/31 00:34:21;;;;;;;0.90;0.47;;;22.10;58.20;;;;;;5112837;28;20100;-77
2022/07/31 00:36:47;;;;;;;1.02;0.30;;;22.10;58.10;;;;;;5113851;28;20039;-77
2022/07/31 00:39:14;;;;;;;0.55;0.30;;;22.10;58.10;;;;;;5112307;28;20495;-77
2022/07/31 00:41:42;;;;;;;1.35;0.30;;;22.10;58.10;;;;;;5112452;28;20127;-77
2022/07/31 00:44:09;;;;;;;0.70;0.32;;;22.10;58.20;;;;;;5112297;28;20048;-78
2022/07/31 00:46:34;;;;;;;0.60;0.30;;;22.10;58.20;;;;;;5112486;28;20078;-77
2022/07/31 00:49:00;;;;;;;1.10;0.60;;;22.10;58.20;;;;;;5112180;28;20417;-77
2022/07/31 00:51:26;;;;;;;1.95;0.50;;;22.10;58.20;;;;;;5112350;28;20127;-76
2022/07/31 00:53:52;;;;;;;1.08;0.40;;;22.00;58.10;;;;;;5112105;28;20486;-77
2022/07/31 00:56:18;;;;;;;1.48;0.40;;;22.10;58.20;;;;;;5112066;28;20039;-77
2022/07/31 00:58:44;;;;;;;0.50;0.35;;;22.10;58.20;;;;;;5111984;28;20075;-77
2022/07/31 01:01:09;;;;;;;0.90;0.40;;;22.10;58.20;;;;;;5111785;28;20169;-76
2022/07/31 01:03:35;;;;;;;1.33;0.40;;;22.10;58.20;;;;;;5112098;28;20496;-77
2022/07/31 01:06:02;;;;;;;0.60;0.30;;;22.10;58.20;;;;;;5111958;28;20035;-76
2022/07/31 01:08:28;;;;;;;0.57;0.40;;;22.10;58.20;;;;;;5112115;28;20039;-77
2022/07/31 01:16:34;;;;;;;1.08;0.43;;;22.00;58.20;;;;;;5130247;27;20379;-77
2022/07/31 01:19:02;;;;;;;;;;;22.10;58.20;;;;;;5129667;28;20115;-77
2022/07/31 01:21:38;;;;;;;0.70;0.30;;;22.10;58.30;;;;;;5128912;28;19915;-77
2022/07/31 01:27:07;;;;;;;0.60;0.40;;;22.10;58.30;;;;;;5152536;27;1170566;-77
2022/07/31 01:29:45;;;;;;;0.80;0.63;;;22.00;58.30;;;;;;5153088;27;20038;-76
2022/07/31 01:32:34;;;;;;;0.63;0.30;;;22.00;58.30;;;;;;5152995;27;20068;-78
2022/07/31 01:35:06;;;;;;;0.95;0.30;;;22.10;58.30;;;;;;5152971;27;20042;-77
2022/07/31 01:37:39;;;;;;;1.20;0.80;;;22.00;58.30;;;;;;5152868;27;20095;-77
2022/07/31 01:40:11;;;;;;;0.95;0.30;;;22.00;58.30;;;;;;5153201;27;20125;-77
2022/07/31 01:42:41;;;;;;;0.43;0.30;;;22.00;58.30;;;;;;5152873;27;20039;-77
2022/07/31 01:45:09;;;;;;;0.77;0.50;;;22.00;58.30;;;;;;5152820;27;20046;-76
2022/07/31 01:47:35;;;;;;;1.00;0.30;;;22.00;58.30;;;;;;5152665;27;20117;-76
2022/07/31 01:50:04;;;;;;;1.40;0.47;;;22.00;58.30;;;;;;5152711;27;20038;-77
2022/07/31 01:52:32;;;;;;;0.63;0.38;;;22.00;58.30;;;;;;5152860;27;20124;-77
2022/07/31 01:54:59;;;;;;;0.68;0.30;;;22.00;58.30;;;;;;5152921;27;20035;-77
2022/07/31 01:57:28;;;;;;;0.50;0.22;;;22.00;58.30;;;;;;5171168;27;20482;-78
2022/07/31 01:59:57;;;;;;;0.75;0.35;;;22.00;58.30;;;;;;5152779;27;20102;-77
2022/07/31 02:02:25;;;;;;;1.03;0.37;;;22.00;58.30;;;;;;5171122;27;20039;-77
2022/07/31 02:04:51;;;;;;;1.02;0.40;;;22.00;58.30;;;;;;5152230;27;20066;-77
2022/07/31 02:07:19;;;;;;;0.80;0.25;;;22.00;58.30;;;;;;5152369;27;20466;-77
2022/07/31 02:09:45;;;;;;;0.88;0.35;;;22.00;58.30;;;;;;5152632;27;20058;-77
2022/07/31 02:12:11;;;;;;;0.80;0.30;;;22.00;58.30;;;;;;5170995;27;20358;-77
2022/07/31 02:14:39;;;;;;;0.65;0.30;;;22.00;58.30;;;;;;5152508;27;20034;-76
2022/07/31 02:17:06;;;;;;;0.73;0.32;;;22.00;58.30;;;;;;5152384;27;20045;-76
2022/07/31 02:19:34;;;;;;;0.73;0.30;;;22.00;58.30;;;;;;5152378;27;20385;-77
2022/07/31 02:22:00;;;;;;;0.60;0.30;;;21.90;58.30;;;;;;5152470;27;20034;-77
2022/07/31 02:24:26;;;;;;;1.17;0.30;;;22.00;58.30;;;;;;5152301;27;20401;-77
2022/07/31 02:26:53;;;;;;;1.00;0.40;;;22.00;58.30;;;;;;5151744;27;20126;-77
2022/07/31 02:29:21;;;;;;;2.28;0.43;;;21.90;58.30;;;;;;5151832;27;20068;-77
2022/07/31 02:31:49;;;;;;;0.68;0.30;;;22.00;58.30;;;;;;5152149;27;20070;-77
2022/07/31 02:34:17;;;;;;;0.50;0.30;;;22.00;58.30;;;;;;5152022;27;20039;-77
2022/07/31 02:36:44;;;;;;;0.82;0.30;;;22.00;58.30;;;;;;5147849;27;20454;-77
2022/07/31 02:39:11;;;;;;;0.80;0.40;;;21.90;58.30;;;;;;5138232;27;20098;-77
2022/07/31 02:41:39;;;;;;;1.73;0.52;;;22.00;58.30;;;;;;5156578;27;20058;-77
2022/07/31 02:44:04;;;;;;;0.80;0.40;;;22.00;58.30;;;;;;5138120;27;20034;-77
2022/07/31 02:46:34;;;;;;;1.15;0.40;;;22.00;58.30;;;;;;5137808;27;20542;-76
2022/07/31 02:49:01;;;;;;;1.00;0.32;;;22.00;58.30;;;;;;5137811;27;20106;-76
2022/07/31 02:51:28;;;;;;;1.13;0.30;;;21.90;58.30;;;;;;5137836;27;20493;-77
2022/07/31 02:53:54;;;;;;;0.68;0.40;;;21.90;58.20;;;;;;5137593;27;20610;-77
2022/07/31 02:56:21;;;;;;;0.85;0.40;;;21.90;58.20;;;;;;5137677;27;20087;-77
2022/07/31 02:58:47;;;;;;;0.50;0.30;;;21.90;58.30;;;;;;5137484;27;20039;-76
2022/07/31 03:01:13;;;;;;;1.00;0.45;;;21.90;58.20;;;;;;5137862;27;20046;-76
2022/07/31 03:03:38;;;;;;;0.57;0.30;;;21.90;58.20;;;;;;5156000;27;20035;-77
2022/07/31 03:06:04;;;;;;;0.60;0.40;;;21.90;58.20;;;;;;5137717;27;20511;-77
2022/07/31 03:08:30;;;;;;;0.75;0.30;;;21.90;58.20;;;;;;5137500;27;20561;-76
2022/07/31 03:10:56;;;;;;;2.45;0.95;;;21.90;58.20;;;;;;5137621;27;20042;-77
2022/07/31 03:13:24;;;;;;;0.60;0.30;;;21.90;58.20;;;;;;5137676;27;20038;-76
2022/07/31 03:15:50;;;;;;;1.13;0.75;;;21.90;58.20;;;;;;5155744;27;20119;-76
2022/07/31 03:18:18;;;;;;;1.00;0.47;;;21.90;58.20;;;;;;5137196;27;20391;-77
2022/07/31 03:20:45;;;;;;;0.52;0.30;;;21.90;58.20;;;;;;5133919;27;20391;-77
2022/07/31 03:23:12;;;;;;;0.63;0.45;;;21.90;58.20;;;;;;5135310;27;20092;-77
2022/07/31 03:25:40;;;;;;;0.93;0.45;;;21.90;58.20;;;;;;5116165;27;20059;-76
2022/07/31 03:28:06;;;;;;;1.10;0.47;;;21.90;58.20;;;;;;5134835;27;20043;-77
2022/07/31 03:30:31;;;;;;;0.77;0.40;;;21.90;58.10;;;;;;5116404;27;20096;-76
2022/07/31 03:33:01;;;;;;;0.82;0.30;;;21.90;58.10;;;;;;5116287;27;20043;-77
2022/07/31 03:35:27;;;;;;;0.85;0.40;;;21.90;58.10;;;;;;5116567;27;20427;-76
2022/07/31 03:37:52;;;;;;;0.80;0.30;;;21.90;58.10;;;;;;5116240;27;20168;-76
2022/07/31 03:40:18;;;;;;;1.67;0.30;;;21.90;58.10;;;;;;5116165;27;20080;-76
2022/07/31 03:42:47;;;;;;;0.98;0.40;;;21.90;58.10;;;;;;5116156;27;20043;-77
2022/07/31 03:45:14;;;;;;;1.20;0.47;;;21.90;58.10;;;;;;5116030;27;20047;-76
2022/07/31 03:47:40;;;;;;;0.98;0.30;;;21.90;58.10;;;;;;5115995;27;20039;-76
2022/07/31 03:50:07;;;;;;;1.33;0.30;;;21.90;58.10;;;;;;5115187;27;20027;-77
2022/07/31 03:52:34;;;;;;;0.70;0.40;;;21.90;58.10;;;;;;5134386;27;20474;-77
2022/07/31 03:55:00;;;;;;;0.80;0.22;;;21.90;58.10;;;;;;5115943;27;20073;-77
2022/07/31 03:57:27;;;;;;;1.00;0.40;;;21.90;58.10;;;;;;5116126;27;20386;-76
2022/07/31 03:59:56;;;;;;;0.60;0.40;;;21.90;58.10;;;;;;5115872;27;20078;-76
2022/07/31 04:02:24;;;;;;;0.43;0.30;;;21.80;58.00;;;;;;5115684;27;20038;-77
2022/07/31 04:04:51;;;;;;;1.30;0.80;;;21.90;58.10;;;;;;5115625;27;20494;-76
2022/07/31 04:07:17;;;;;;;0.63;0.22;;;21.90;58.10;;;;;;5134199;27;20046;-77
2022/07/31 04:09:42;;;;;;;0.50;0.38;;;21.90;58.10;;;;;;5115974;27;20027;-76
2022/07/31 04:12:08;;;;;;;0.60;0.40;;;21.90;58.10;;;;;;5115929;27;20497;-76
2022/07/31 04:14:34;;;;;;;0.70;0.47;;;21.90;58.10;;;;;;5115830;27;20474;-76
2022/07/31 04:16:59;;;;;;;0.57;0.30;;;21.80;58.00;;;;;;5133762;27;20031;-77
2022/07/31 04:19:25;;;;;;;0.65;0.22;;;21.80;58.00;;;;;;5115551;27;20035;-77
2022/07/31 04:21:51;;;;;;;1.35;0.30;;;21.80;58.00;;;;;;5136054;27;20035;-77
2022/07/31 04:24:17;;;;;;;0.60;0.32;;;21.80;58.00;;;;;;5136062;27;20477;-76
2022/07/31 04:26:43;;;;;;;0.80;0.40;;;21.80;58.10;;;;;;5135564;27;20047;-77
2022/07/31 04:29:10;;;;;;;0.65;0.30;;;21.90;58.10;;;;;;5135827;27;20047;-77
2022/07/31 04:31:35;;;;;;;0.60;0.32;;;21.90;58.10;;;;;;5135880;27;20042;-77
2022/07/31 04:34:02;;;;;;;0.65;0.30;;;21.80;58.00;;;;;;5135776;27;20091;-77
2022/07/31 04:36:27;;;;;;;0.85;0.30;;;21.80;58.00;;;;;;5135943;27;20447;-77
2022/07/31 04:38:53;;;;;;;0.95;0.40;;;21.80;58.10;;;;;;5154161;27;20110;-77
2022/07/31 04:41:18;;;;;;;1.08;0.50;;;21.80;58.00;;;;;;5154550;27;20058;-77
2022/07/31 04:43:44;;;;;;;0.70;0.40;;;21.80;58.00;;;;;;5135580;27;20035;-76
2022/07/31 04:46:10;;;;;;;1.17;0.30;;;21.80;58.10;;;;;;5135498;27;20083;-76
2022/07/31 04:48:35;;;;;;;0.50;0.30;;;21.80;58.10;;;;;;5135373;27;20465;-76
2022/07/31 04:51:01;;;;;;;0.50;0.47;;;21.80;58.10;;;;;;5135496;27;20043;-77
2022/07/31 04:53:27;;;;;;;0.82;0.30;;;21.80;58.10;;;;;;5135342;27;20043;-77
2022/07/31 04:58:38;;;;;;;0.75;0.40;;;21.80;58.10;;;;;;5153664;27;20042;-76
2022/07/31 05:01:06;;;;;;;0.63;0.50;;;21.80;58.10;;;;;;5134971;27;20570;-76
2022/07/31 05:03:32;;;;;;;0.95;0.40;;;21.80;58.10;;;;;;5135506;27;20443;-76
2022/07/31 05:06:09;;;;;;;0.60;0.38;;;21.80;58.10;;;;;;5135309;27;20034;-76
2022/07/31 05:08:34;;;;;;;0.93;0.40;;;21.80;58.10;;;;;;5135475;27;20359;-76
2022/07/31 05:11:31;;;;;;;0.55;0.30;;;21.80;58.10;;;;;;5135474;27;20080;-77
2022/07/31 05:13:46;;;;;;;1.00;0.25;;;21.80;58.10;;;;;;5153358;27;20053;-76
2022/07/31 05:16:11;;;;;;;0.50;0.25;;;21.80;58.20;;;;;;5154074;27;20110;-77
2022/07/31 05:18:37;;;;;;;0.47;0.30;;;21.80;58.10;;;;;;5134981;27;20094;-77
2022/07/31 05:21:03;;;;;;;0.88;0.35;;;21.80;58.10;;;;;;5131809;27;20099;-77
2022/07/31 05:23:28;;;;;;;0.45;0.40;;;21.80;58.10;;;;;;5114394;28;20383;-77
2022/07/31 05:25:54;;;;;;;0.57;0.40;;;21.80;58.10;;;;;;5110769;28;20292;-76
2022/07/31 05:28:20;;;;;;;0.55;0.30;;;21.80;58.10;;;;;;5111077;28;20044;-77
2022/07/31 05:30:45;;;;;;;0.63;0.30;;;21.80;58.10;;;;;;5111190;28;20032;-77
2022/07/31 05:33:11;;;;;;;0.50;0.30;;;21.80;58.10;;;;;;5110972;28;20426;-77
2022/07/31 05:35:36;;;;;;;0.50;0.30;;;21.80;58.20;;;;;;5111171;28;20043;-77
2022/07/31 05:38:02;;;;;;;0.77;0.30;;;21.80;58.10;;;;;;5110968;28;20047;-77
2022/07/31 05:40:28;;;;;;;0.47;0.30;;;21.80;58.20;;;;;;5110851;28;20040;-77
2022/07/31 05:42:54;;;;;;;0.40;0.30;;;21.80;58.20;;;;;;5111049;28;20047;-77
2022/07/31 05:45:19;;;;;;;0.73;0.30;;;21.80;58.20;;;;;;5110726;28;20560;-77
2022/07/31 05:47:45;;;;;;;0.68;0.40;;;21.80;58.20;;;;;;5112327;28;20067;-76
2022/07/31 05:50:11;;;;;;;0.60;0.30;;;21.80;58.20;;;;;;5110798;28;20550;-76
2022/07/31 05:52:37;;;;;;;0.80;0.50;;;21.80;58.20;;;;;;5111070;28;20047;-76
2022/07/31 05:55:03;;;;;;;0.80;0.40;;;21.80;58.20;;;;;;5110749;28;20471;-76
2022/07/31 05:57:28;;;;;;;0.93;0.30;;;21.80;58.20;;;;;;5112040;28;20538;-76
2022/07/31 05:59:54;;;;;;;0.75;0.40;;;21.80;58.20;;;;;;5110646;28;20039;-76
2022/07/31 06:02:19;;;;;;;0.52;0.30;;;21.80;58.20;;;;;;5110977;28;20032;-76
2022/07/31 06:04:45;;;;;;;0.45;0.30;;;21.80;58.20;;;;;;5110595;28;20628;-76
2022/07/31 06:07:10;;;;;;;0.50;0.30;;;21.80;58.20;;;;;;5111117;28;20036;-76
2022/07/31 06:09:36;;;;;;;0.95;0.35;;;21.80;58.20;;;;;;5110636;28;20499;-76
2022/07/31 06:12:02;;;;;;;1.13;0.40;;;21.80;58.20;;;;;;5111814;28;20046;-76
2022/07/31 06:14:27;;;;;;;0.80;0.35;;;21.80;58.20;;;;;;5114437;28;20062;-76
2022/07/31 06:16:53;;;;;;;0.57;0.40;;;21.80;58.20;;;;;;5115583;28;20046;-76
2022/07/31 06:19:19;;;;;;;1.00;0.50;;;21.80;58.20;;;;;;5114544;28;20043;-76
2022/07/31 06:21:45;;;;;;;0.77;0.40;;;21.80;58.20;;;;;;5134119;27;20039;-77
2022/07/31 06:24:11;;;;;;;0.70;0.40;;;21.80;58.20;;;;;;5136246;27;20035;-77
2022/07/31 06:26:36;;;;;;;0.82;0.50;;;21.80;58.20;;;;;;5150976;27;20046;-76
2022/07/31 06:29:03;;;;;;;0.43;0.22;;;21.80;58.20;;;;;;5138231;27;20474;-76
2022/07/31 06:31:29;;;;;;;0.68;0.52;;;21.80;58.20;;;;;;5138083;27;20122;-78
2022/07/31 06:33:54;;;;;;;0.90;0.50;;;21.80;58.20;;;;;;5138416;27;20122;-76
2022/07/31 06:36:20;;;;;;;0.93;0.50;;;21.80;58.20;;;;;;5138343;27;20099;-77
2022/07/31 06:38:46;;;;;;;0.77;0.40;;;21.80;58.20;;;;;;5138648;27;20087;-77
2022/07/31 06:41:43;;;;;;;1.05;0.50;;;21.80;58.20;;;;;;5137930;27;20039;-77
2022/07/31 06:43:57;;;;;;;0.95;0.35;;;21.80;58.20;;;;;;5156127;27;20053;-76
2022/07/31 06:46:23;;;;;;;1.42;0.30;;;21.80;58.20;;;;;;5137799;27;20042;-76
2022/07/31 06:48:48;;;;;;;0.80;0.40;;;21.80;58.30;;;;;;5138137;27;20030;-76
2022/07/31 06:51:14;;;;;;;0.85;0.52;;;21.80;58.20;;;;;;5137838;27;20478;-76
2022/07/31 06:53:40;;;;;;;1.23;0.40;;;21.80;58.30;;;;;;5137882;27;20039;-76
2022/07/31 06:56:05;;;;;;;0.88;0.40;;;21.80;58.30;;;;;;5137884;27;20043;-77
2022/07/31 06:58:32;;;;;;;0.65;0.30;;;21.80;58.30;;;;;;5137524;27;20405;-77
2022/07/31 07:00:57;;;;;;;0.80;0.40;;;21.80;58.30;;;;;;5137841;27;20042;-76
2022/07/31 07:03:23;;;;;;;0.55;0.40;;;21.80;58.30;;;;;;5137590;27;20383;-76
2022/07/31 07:05:48;;;;;;;1.27;0.30;;;21.80;58.30;;;;;;5137363;27;20050;-76
2022/07/31 07:08:14;;;;;;;0.60;0.30;;;21.80;58.30;;;;;;5137559;27;20030;-77
2022/07/31 07:10:40;;;;;;;1.13;0.47;;;21.80;58.30;;;;;;5137260;27;20038;-76
2022/07/31 07:13:05;;;;;;;1.00;0.50;;;21.80;58.30;;;;;;5155891;27;20039;-76
2022/07/31 07:15:31;;;;;;;0.93;0.50;;;21.80;58.20;;;;;;5137514;27;20038;-76
2022/07/31 07:17:56;;;;;;;1.48;0.60;;;21.80;58.20;;;;;;5137192;27;20107;-76
2022/07/31 07:20:22;;;;;;;0.70;0.40;;;21.80;58.20;;;;;;5155878;27;20031;-77
2022/07/31 07:22:48;;;;;;;0.95;0.43;;;21.80;58.30;;;;;;5137037;27;20095;-76
2022/07/31 07:25:13;;;;;;;0.50;0.30;;;21.80;58.20;;;;;;5155345;27;20088;-76
2022/07/31 07:27:39;;;;;;;0.60;0.30;;;21.80;58.20;;;;;;5136968;27;20038;-76
2022/07/31 07:30:05;;;;;;;1.98;0.40;;;21.80;58.20;;;;;;5137152;27;20095;-76
2022/07/31 07:32:31;;;;;;;0.70;0.35;;;21.80;58.20;;;;;;5136713;27;20038;-77
2022/07/31 07:34:56;;;;;;;1.75;0.30;;;21.80;58.20;;;;;;5137203;27;20027;-77
2022/07/31 07:37:22;;;;;;;0.55;0.35;;;21.80;58.20;;;;;;5136890;27;20123;-76
2022/07/31 07:39:48;;;;;;;0.70;0.30;;;21.80;58.30;;;;;;5137027;27;20083;-76
2022/07/31 07:42:13;;;;;;;0.70;0.40;;;21.80;58.30;;;;;;5136759;27;20397;-77
2022/07/31 07:44:39;;;;;;;1.15;0.40;;;21.80;58.30;;;;;;5136671;27;20035;-76
2022/07/31 07:47:04;;;;;;;1.23;0.50;;;21.80;58.30;;;;;;5155097;27;20125;-77
2022/07/31 07:49:30;;;;;;;0.50;0.30;;;21.80;58.30;;;;;;5136559;27;20038;-76
2022/07/31 07:51:56;;;;;;;0.88;0.47;;;21.80;58.30;;;;;;5155268;27;20087;-76
2022/07/31 07:54:21;;;;;;;0.90;0.45;;;21.80;59.10;;;;;;5136434;27;20035;-76
2022/07/31 07:56:47;;;;;;;1.00;0.40;;;21.80;58.30;;;;;;5136487;27;20039;-76
2022/07/31 07:59:12;;;;;;;2.45;0.60;;;21.80;58.40;;;;;;5136383;27;20038;-76
2022/07/31 08:01:38;;;;;;;1.05;0.50;;;21.80;58.40;;;;;;5136316;27;20046;-76
2022/07/31 08:04:04;;;;;;;1.05;0.47;;;21.80;58.40;;;;;;5136616;27;20043;-76
2022/07/31 08:06:31;;;;;;;1.05;0.50;;;21.90;58.50;;;;;;5136137;27;20074;-76
2022/07/31 08:08:57;;;;;;;0.57;0.40;;;21.80;58.50;;;;;;5136218;27;20269;-77
2022/07/31 08:11:22;;;;;;;1.63;0.68;;;21.80;58.50;;;;;;5136616;27;20367;-76
2022/07/31 08:13:48;;;;;;;1.42;0.70;;;21.80;58.60;;;;;;5136351;27;20072;-76
2022/07/31 08:16:14;;;;;;;1.10;0.63;;;21.80;58.80;;;;;;5154719;27;20038;-77
2022/07/31 08:18:39;;;;;;;0.50;0.40;;;21.90;58.80;;;;;;5136257;27;20049;-76
2022/07/31 08:21:05;;;;;;;2.00;0.40;;;21.90;58.80;;;;;;5135793;27;20057;-77
2022/07/31 08:23:31;;;;;;;0.80;0.50;;;21.80;58.70;;;;;;5136135;27;20031;-76
2022/07/31 08:25:56;;;;;;;1.20;0.30;;;21.90;58.80;;;;;;5135640;27;20474;-77
2022/07/31 08:28:25;;;;;;;1.00;0.50;;;21.90;58.80;;;;;;5136054;27;20042;-76
2022/07/31 08:30:51;;;;;;;0.80;0.50;;;21.90;58.80;;;;;;5154271;27;20041;-77
2022/07/31 08:33:16;;;;;;;1.00;0.50;;;21.90;58.80;;;;;;5135602;27;20034;-77
2022/07/31 08:35:42;;;;;;;0.82;0.50;;;21.90;58.80;;;;;;5135070;27;20046;-77
2022/07/31 08:38:07;;;;;;;1.08;0.47;;;21.90;58.90;;;;;;5135658;27;20038;-77
2022/07/31 08:40:36;;;;;;;1.45;0.50;;;21.90;59.00;;;;;;5135900;27;20046;-77
2022/07/31 08:43:03;;;;;;;1.48;0.52;;;21.90;59.00;;;;;;5135486;27;20493;-77
2022/07/31 08:45:30;;;;;;;1.40;0.60;;;21.90;59.00;;;;;;5135482;27;20238;-77
2022/07/31 08:47:59;;;;;;;1.63;0.60;;;21.90;59.10;;;;;;5135505;27;20091;-76
2022/07/31 08:50:25;;;;;;;1.50;0.63;;;21.90;59.10;;;;;;5135706;27;20077;-77
2022/07/31 08:52:53;;;;;;;1.55;0.90;;;21.90;59.10;;;;;;5135443;27;20126;-77
2022/07/31 08:55:21;;;;;;;1.00;0.70;;;21.90;59.40;;;;;;5135559;27;20048;-76
2022/07/31 08:57:47;;;;;;;0.98;0.63;;;21.90;59.60;;;;;;5135280;27;20046;-76
2022/07/31 09:00:16;;;;;;;0.93;0.30;;;21.90;59.30;;;;;;5135227;27;20083;-77
2022/07/31 09:02:43;;;;;;;1.85;1.27;;;21.90;59.10;;;;;;5135161;27;20045;-76
2022/07/31 09:05:09;;;;;;;2.10;0.52;;;21.90;59.30;;;;;;5135307;27;20057;-76
2022/07/31 09:07:34;;;;;;;1.27;0.68;;;21.90;59.10;;;;;;5135213;27;20071;-76
2022/07/31 09:10:01;;;;;;;0.80;0.55;;;21.90;59.00;;;;;;5135343;27;20069;-77
2022/07/31 09:12:29;;;;;;;0.70;0.60;;;21.90;59.10;;;;;;5153968;27;20393;-77
2022/07/31 09:14:55;;;;;;;1.77;1.00;;;21.90;59.10;;;;;;5134796;27;20074;-76
2022/07/31 09:17:30;;;;;;;0.85;0.60;;;21.90;59.10;;;;;;5134622;27;20038;-77
2022/07/31 09:19:56;;;;;;;1.60;0.43;;;21.90;59.00;;;;;;5153545;27;20043;-77
2022/07/31 09:22:24;;;;;;;2.25;0.38;;;21.90;59.00;;;;;;5135176;27;20027;-76
2022/07/31 09:24:50;;;;;;;0.98;0.40;;;21.90;59.00;;;;;;5135113;27;20035;-77
2022/07/31 09:27:16;;;;;;;0.95;0.60;;;21.90;59.20;;;;;;5131994;28;20376;-76
2022/07/31 09:29:45;;;;;;;0.88;0.50;;;21.90;59.20;;;;;;5131768;28;20382;-76
2022/07/31 09:32:14;;;;;;;0.60;0.40;;;21.90;59.20;;;;;;5131426;28;20039;-76
2022/07/31 09:34:41;;;;;;;1.17;0.70;;;21.90;59.60;;;;;;5131769;28;20043;-75
2022/07/31 09:37:11;;;;;;;0.70;0.70;;;21.90;59.90;;;;;;5131551;28;20077;-76
2022/07/31 09:39:38;;;;;;;1.38;0.60;;;21.90;59.80;;;;;;5131468;28;20132;-77
2022/07/31 09:42:05;;;;;;;1.00;0.57;;;21.90;60.00;;;;;;5132702;27;20039;-76
2022/07/31 09:44:36;;;;;;;1.20;0.50;;;21.90;60.00;;;;;;5131719;28;20363;-75
2022/07/31 09:47:03;;;;;;;1.58;1.35;;;21.90;60.30;;;;;;5132370;27;20039;-75
2022/07/31 09:49:31;;;;;;;2.72;1.08;;;21.90;60.40;;;;;;5137115;27;20046;-75
2022/07/31 09:51:58;;;;;;;1.52;0.70;;;21.90;60.80;;;;;;5135793;27;20117;-75
2022/07/31 09:54:26;;;;;;;1.23;0.77;;;21.90;60.90;;;;;;5135524;27;20071;-75
2022/07/31 09:56:52;;;;;;;1.98;0.80;;;21.90;61.00;;;;;;5135477;27;20075;-75
2022/07/31 09:59:18;;;;;;;1.63;1.05;;;21.90;61.10;;;;;;5135543;27;20081;-76
2022/07/31 10:01:47;;;;;;;1.52;0.93;;;21.90;61.30;;;;;;5135648;27;20435;-75
2022/07/31 10:04:15;;;;;;;1.08;0.70;;;21.90;61.40;;;;;;5136604;27;20042;-76
2022/07/31 10:06:42;;;;;;;0.85;0.50;;;21.90;61.30;;;;;;5135299;27;20439;-76
2022/07/31 10:09:08;;;;;;;0.82;0.60;;;21.90;60.50;;;;;;5135191;27;20043;-75
2022/07/31 10:11:36;;;;;;;1.13;0.40;;;21.90;60.20;;;;;;5135212;27;20039;-75
2022/07/31 10:14:09;;;;;;;0.60;0.40;;;21.90;60.10;;;;;;5135025;27;20113;-75
2022/07/31 10:16:38;;;;;;;0.50;0.40;;;21.90;60.00;;;;;;5135082;27;20122;-76
2022/07/31 10:19:10;;;;;;;1.15;0.63;;;21.90;60.00;;;;;;5134973;27;20513;-75
2022/07/31 10:21:40;;;;;;;1.00;0.55;;;21.90;60.00;;;;;;5135185;27;20047;-75
2022/07/31 10:24:06;;;;;;;1.73;0.60;;;21.90;60.00;;;;;;5134827;27;20127;-75
2022/07/31 10:26:32;;;;;;;0.60;0.38;;;21.90;60.00;;;;;;5134647;27;20051;-76
2022/07/31 10:28:58;;;;;;;0.98;0.40;;;21.90;60.00;;;;;;5135895;27;20039;-76
2022/07/31 10:31:24;;;;;;;0.70;0.40;;;21.90;60.10;;;;;;5135026;27;20043;-76
2022/07/31 10:33:51;;;;;;;0.60;0.45;;;21.90;60.10;;;;;;5135034;27;20382;-76
2022/07/31 10:36:21;;;;;;;1.35;0.77;;;21.90;60.10;;;;;;5134945;27;20393;-76
2022/07/31 10:38:54;;;;;;;1.35;0.40;;;21.90;60.10;;;;;;5134876;27;20444;-76
2022/07/31 10:46:54;;;;;;;1.00;0.55;;;21.90;60.10;;;;;;5130441;27;20354;-77
2022/07/31 10:52:28;;;;;;;0.77;0.40;;;21.90;60.40;;;;;;5130346;27;20821;-76
2022/07/31 10:54:57;;;;;;;0.63;0.35;;;22.00;60.60;;;;;;5128938;28;20043;-77
2022/07/31 11:00:19;;;;;;;0.80;0.40;;;21.90;60.50;;;;;;5130242;27;20845;-77
2022/07/31 11:02:46;;;;;;;1.23;0.57;;;21.90;60.70;;;;;;5129350;27;20339;-77
2022/07/31 11:05:14;;;;;;;0.90;0.50;;;21.90;60.60;;;;;;5129102;28;20122;-76
2022/07/31 11:07:41;;;;;;;0.80;0.63;;;21.90;60.70;;;;;;5128930;27;20490;-76
2022/07/31 11:10:09;;;;;;;0.90;0.50;;;21.90;60.70;;;;;;5128855;28;20039;-76
2022/07/31 11:12:35;;;;;;;0.82;0.43;;;21.90;60.80;;;;;;5128841;28;20073;-76
2022/07/31 11:15:00;;;;;;;0.73;0.50;;;21.90;60.80;;;;;;5128643;28;20047;-76
2022/07/31 11:17:31;;;;;;;0.75;0.50;;;21.90;60.80;;;;;;5128583;28;20039;-76
2022/07/31 11:19:57;;;;;;;1.65;0.40;;;21.90;60.90;;;;;;5128582;28;20116;-77
2022/07/31 11:22:22;;;;;;;1.40;0.68;;;21.90;60.90;;;;;;5129130;28;20035;-76
2022/07/31 11:24:57;;;;;;;1.48;0.63;;;21.90;61.00;;;;;;5128803;28;20047;-76
2022/07/31 11:27:31;;;;;;;2.55;1.23;;;21.90;61.30;;;;;;5128557;28;20067;-75
2022/07/31 11:30:04;;;;;;;1.38;1.10;;;21.90;62.00;;;;;;5129926;27;20107;-75
2022/07/31 11:32:30;;;;;;;1.50;1.25;;;21.90;62.40;;;;;;5128656;28;20368;-75
2022/07/31 11:34:56;;;;;;;2.17;1.20;;;21.90;62.60;;;;;;5128400;28;20039;-76
2022/07/31 11:40:05;;;;;;;1.40;1.20;;;21.90;62.80;;;;;;5130223;27;20407;-76
2022/07/31 11:42:30;;;;;;;2.70;1.83;;;21.90;63.30;;;;;;5128975;28;20551;-77
2022/07/31 11:45:04;;;;;;;2.17;1.70;;;21.90;63.30;;;;;;5129219;27;20035;-77
2022/07/31 11:47:38;;;;;;;2.15;1.63;;;21.90;63.50;;;;;;5128934;28;20043;-78
2022/07/31 11:50:04;;;;;;;2.00;1.80;;;21.90;63.60;;;;;;5129109;28;20047;-79
2022/07/31 11:52:30;;;;;;;3.45;1.90;;;21.90;63.60;;;;;;5128764;28;20486;-80
2022/07/31 11:55:14;;;;;;;2.00;1.50;;;21.90;63.70;;;;;;5128697;27;20089;-79
2022/07/31 11:57:41;;;;;;;1.55;1.45;;;21.90;63.70;;;;;;5128565;27;20046;-79
2022/07/31 12:02:47;;;;;;;1.35;1.10;;;21.90;63.60;;;;;;5089362;27;20406;-79
2022/07/31 12:05:13;;;;;;;1.45;1.00;;;21.90;63.40;;;;;;5088286;28;20446;-80
2022/07/31 12:07:41;;;;;;;1.95;1.55;;;21.90;63.30;;;;;;5087960;28;20139;-80
2022/07/31 12:10:09;;;;;;;1.88;0.77;;;21.90;63.50;;;;;;5089300;28;20043;-80
2022/07/31 12:12:36;;;;;;;1.88;1.40;;;21.90;63.60;;;;;;5088192;28;20048;-80
2022/07/31 12:15:12;;;;;;;2.72;2.05;;;21.90;63.70;;;;;;5088129;28;20048;-80
2022/07/31 12:17:38;;;;;;;1.52;1.08;;;21.90;63.80;;;;;;5088088;28;20040;-81
2022/07/31 12:20:08;;;;;;;1.77;1.55;;;21.90;63.80;;;;;;5088967;28;20115;-80
2022/07/31 12:22:34;;;;;;;;;;;21.90;63.80;;;;;;5088199;28;20500;-79
2022/07/31 12:25:00;;;;;;;1.40;1.05;;;21.90;63.80;;;;;;5088031;28;19973;-80
2022/07/31 12:27:26;;;;;;;2.47;1.92;;;21.90;64.60;;;;;;5087623;28;20068;-79
2022/07/31 12:29:51;;;;;;;3.22;2.58;;;21.90;64.10;;;;;;5087668;28;20083;-79
2022/07/31 12:32:32;;;;;;;3.40;2.50;;;21.90;64.50;;;;;;5088793;28;20055;-79
2022/07/31 12:35:05;;;;;;;3.50;2.83;;;22.00;65.20;;;;;;5088761;28;20040;-80
2022/07/31 12:37:42;;;;;;;2.67;2.42;;;21.90;65.10;;;;;;5087524;28;20274;-80
2022/07/31 12:40:08;;;;;;;2.38;2.17;;;21.90;64.90;;;;;;5087479;28;20119;-80
2022/07/31 12:42:37;;;;;;;2.25;2.03;;;21.90;65.00;;;;;;5088622;28;20115;-80
2022/07/31 12:45:04;;;;;;;2.95;2.65;;;21.90;65.00;;;;;;5087296;28;20499;-80
2022/07/31 12:47:31;;;;;;;3.35;1.80;;;21.90;65.00;;;;;;5087338;28;20048;-80
2022/07/31 12:49:59;;;;;;;2.92;2.30;;;21.90;65.00;;;;;;5087277;28;20040;-80
2022/07/31 12:52:29;;;;;;;3.03;2.63;;;21.90;65.10;;;;;;5088516;28;20115;-80
2022/07/31 12:54:55;;;;;;;2.70;1.75;;;21.90;65.20;;;;;;5087441;28;20055;-80
2022/07/31 12:57:20;;;;;;;2.40;2.05;;;21.90;65.10;;;;;;5087153;28;20044;-80
2022/07/31 12:59:46;;;;;;;2.97;2.67;;;21.90;65.10;;;;;;5087298;28;20032;-80
2022/07/31 13:02:12;;;;;;;2.90;2.60;;;21.90;65.20;;;;;;5087978;28;20408;-80
2022/07/31 13:04:37;;;;;;;2.40;2.20;;;21.90;65.20;;;;;;5087185;28;20070;-80
2022/07/31 13:07:03;;;;;;;3.78;3.00;;;21.90;65.30;;;;;;5086933;28;20119;-80
2022/07/31 13:09:29;;;;;;;2.80;2.50;;;21.90;65.40;;;;;;5086896;28;20101;-80
2022/07/31 13:11:55;;;;;;;2.75;2.13;;;21.90;65.50;;;;;;5086086;28;20199;-80
2022/07/31 13:14:22;;;;;;;2.63;2.05;;;21.90;65.60;;;;;;5072798;28;20045;-80